カンクン国際空港の過去48時間の天気

カンクン国際空港 (Cancun International Airport)

現在時刻: 10/1 10:56 CDT (10/1 15:56 UTC) 以下の時間は現地時間です。

過去48時間のMETAR気象情報
時間 風向 風速(m/s) 視程 気温(℃) 湿度(%) 気圧(hPa) 天気現象
1 09:49 静穏 0 10km以上 28 89 1013.7
1 08:47 静穏 0 10km以上 28 84 1013
1 07:50 静穏 0 10km以上 26 94 1013
1 06:54 静穏 0 10km以上 24 100 1012.2
1 05:47 静穏 0 10km以上 25 100 1012
1 04:45 静穏 0 10km以上 24 100 1011
1 03:53 静穏 0 10km以上 25 94 1011.5
1 02:44 北西 2 10km以上 25 100 1011
1 01:42 静穏 0 10km以上 24 100 1012
1 00:48 静穏 0 10km以上 24 100 1012.6
30 23:50 静穏 0 10km以上 25 100 1013
30 22:47 北北西 2 10km以上 25 94 1014
30 21:51 静穏 0 10km以上 25 100 1013.6
30 20:51 静穏 0 10km以上 26 89 1013
30 19:52 静穏 0 10km以上 26 84 1012
30 18:51 静穏 0 10km以上 25 89 1012.1
30 17:47 北東 2 10km以上 25 89 1012
30 16:50 北西 3 10km以上 27 84 1012
30 15:52 5 10km以上 31 70 1011.3
30 14:47 南南東 4 10km以上 32 63 1011
30 13:49 東南東 4 10km以上 32 67 1012
30 12:49 南東 6 10km以上 31 66 1012.7
30 11:46 南東 4 10km以上 30 66 1014
30 10:51 5 10km以上 30 75 1014
30 09:49 4 10km以上 30 75 1014.3
30 08:51 4 10km以上 30 75 1014
30 07:45 静穏 0 10km以上 26 84 1013
30 06:46 静穏 0 10km以上 23 94 1012.3
30 05:47 静穏 0 10km以上 23 94 1012
30 04:48 静穏 0 10km以上 23 94 1012
30 03:49 静穏 0 10km以上 23 100 1012
30 02:46 西北西 2 10km以上 24 94 1013
30 01:47 西南西 2 10km以上 25 89 1013
30 00:46 西南西 2 10km以上 25 89 1013.3
29 23:47 静穏 0 10km以上 25 94 1014
29 22:48 北東 2 10km以上 25 94 1013
29 21:49 2 10km以上 25 89 1013.6
29 20:43 2 10km以上 25 89 1013
29 19:48 北西 3 10km以上 26 84 1012
29 18:47 静穏 0 10km以上 25 89 1011.5
29 17:45 西北西 4 10km以上 26 84 1011
29 16:49 北西 8 10km以上 26 84 1011
29 16:03 北北西 3 10km以上 28 79 1011
29 15:50 北西 3 10km以上 29 74 1010.1
29 14:42 南南東 4 10km以上 32 63 1010
29 13:45 南南東 4 10km以上 32 63 1011
29 12:46 南南東 4 10km以上 31 66 1011.9
29 11:40 4 10km以上 31 70 1013
MMUN 011449Z 00000KT 7SM SCT015CB BKN080 OVC250 28/26 A2992 RMK SLP137 52015 956 8/363 SC
MMUN 011347Z 00000KT 7SM SCT015TCU BKN080 OVC250 28/25 A2992 RMK 8/263 CB W
MMUN 011250Z 00000KT 7SM FEW015TCU SCT080 BKN250 26/25 A2991 RMK 8/263
MMUN 011154Z 00000KT 7SM FEW015 SCT080 BKN250 24/24 A2989 RMK SLP122 52007 951 8/178 MDT CU DSNT CB
MMUN 011047Z 00000KT 7SM FEW015TCU SCT080 BKN250 25/25 A2988 RMK 8/278 CB VC
MMUN 010945Z 00000KT 7SM SCT015TCU BKN080 BKN250 24/24 A2985 RMK 8/278 CB VC
MMUN 010853Z 00000KT 6SM SCT015TCU BKN080 BKN250 25/24 A2985 RMK SLP115 57011 955 8/278 OCNL DROPS DSNT CB S
MMUN 010744Z 31004KT 7SM FEW015TCU SCT100 BKN250 25/25 A2986 RMK 8/278
MMUN 010642Z 00000KT 7SM SCT015TCU BKN250 24/24 A2987 RMK 8/208 AC
MMUN 010548Z 00000KT 7SM FEW015TCU SCT100 BKN250 24/24 A2989 RMK SLP126 57010 957 8/278
MMUN 010450Z 00000KT 7SM SCT015CB BKN100 BKN250 25/25 A2992 RMK 8/378
MMUN 010347Z 33003KT 7SM SCT015CB BKN100 BKN250 25/24 A2993 RMK 8/378
MMUN 010251Z 00000KT 7SM FEW015 SCT100 BKN250 25/25 A2993 RMK SLP136 52015 900 8/178 MDT CU
MMUN 010151Z 00000KT 7SM FEW015 BKN100 BKN250 26/24 A2991 RMK 8/178 MDT CU
MMUN 010052Z 00000KT 7SM FEW015TCU BKN100 BKN250 26/23 A2988 RMK 8/278
MMUN 302351Z 00000KT 7SM SCT015TCU BKN100 BKN250 25/23 A2988 RMK SLP121 52008 906 8/278 TSE35
MMUN 302247Z 05004KT 7SM TS BKN015CB BKN250 25/23 A2988 RMK 8/903 TSB42 AS
MMUN 302150Z 31005KT 7SM BKN015CB 27/24 A2988 RMK 8/300 RA NW
MMUN 302052Z 10010KT 7SM SCT015TCU BKN250 31/25 A2986 RMK SLP113 57014 912 8/208 AS
MMUN 301947Z 15008KT 7SM BKN015TCU BKN250 32/24 A2986 RMK 8/208
MMUN 301849Z 12008KT 7SM SCT015TCU BKN250 32/25 A2988 RMK 8/208 AS
MMUN 301749Z 13012KT 7SM SCT015TCU BKN250 31/24 A2990 RMK SLP127 57016 908 8/208 AS
MMUN 301646Z 13007KT 7SM SCT015TCU BKN250 30/23 A2993 RMK 8/208 AS
MMUN 301551Z 10010KT 7SM BKN015TCU BKN250 30/25 A2995 RMK 8/208 AS
MMUN 301449Z 08007KT 7SM BKN015TCU BKN250 30/25 A2995 RMK SLP143 52020 916 8/208
MMUN 301351Z 08007KT 7SM SCT015 BKN250 30/25 A2994 RMK 8/108 MDT CU
MMUN 301245Z 00000KT 7SM FEW015 SCT250 26/23 A2991 RMK 8/108 MDT CU AS
MMUN 301146Z 00000KT 7SM SCT015 SCT250 23/22 A2990 RMK SLP123 51003 903 8/108 MDT CU
MMUN 301047Z 00000KT 7SM SCT015 SCT250 23/22 A2988 RMK 8/508
MMUN 300948Z 00000KT 7SM FEW015 SCT250 23/22 A2988 RMK 8/508
MMUN 300849Z 00000KT 7SM SCT250 23/23 A2988 RMK SLP120 57013 911 8/008 SC
MMUN 300746Z 29004KT 7SM SCT250 24/23 A2990 RMK 8/008
MMUN 300647Z 25004KT 7SM SCT250 25/23 A2992 RMK 8/008
MMUN 300546Z 25004KT 7SM SCT250 25/23 A2992 RMK SLP133 56003 910 8/008 AS
MMUN 300447Z 00000KT 7SM SCT250 25/24 A2993 RMK 8/008 AS
MMUN 300348Z 05004KT 7SM FEW080 SCT250 25/24 A2991 RMK 8/078
MMUN 300249Z 35004KT 7SM FEW080 SCT250 25/23 A2993 RMK SLP136 51021 912 8/078
MMUN 300143Z 01003KT 7SM FEW080 SCT250 25/23 A2990 RMK 8/078
MMUN 300048Z 32005KT 7SM SCT080 26/23 A2989 RMK 8/070 CU CI
MMUN 292347Z 00000KT 7SM SCT080 SCT230 25/23 A2987 RMK SLP115 52014 908 8/078 FU W SC CB SSW
MMUN 292245Z 30007KT 7SM FEW015 BKN080 BKN230 26/23 A2985 RMK 8/163 MDT CU CB SSW PCPN 4TH QUAD
MMUN 292149Z 310016KT 7SM BKN015CB BKN230 26/23 A2985 RMK 8/303 TSE15 PCPN 4TH QUAD AC
MMUN 292103Z 34005KT 7SM TS SCT015CB SCT200 28/24 A2984 RMK 8/903 TSB53 LTGIC SW AC
MMUN 292050Z 32006KT 7SM SCT015CB SCT200 29/24 A2984 RMK SLP101 57018 902 8/303 AC PCPN SW AND NNW
MMUN 291942Z 15008KT 7SM SCT015CB SCT250 32/24 A2982 RMK 8/308 PCPN 4TH QUAD
MMUN 291845Z 15007KT 7SM SCT015 SCT250 32/24 A2986 RMK 8/208 CB WSW
MMUN 291746Z 15007KT 7SM SCT015TCU 31/24 A2987 RMK SLP119 58008 951 8/200 CI
MMUN 291640Z 09007KT 7SM SCT015 BKN250 31/25 A2990 RMK 8/108 MDT CU